CheckWX is a tool to help pilots better visualize weather data.  It is not intended as a substitute for an official pre-flight weather briefing.

02:12:57 UTC

FQCH TAF
Chimoio Airport
Chimoio, Mozambique
TAF FQCH 291000Z 2912/3012 VRB03KT 9999 FEW020 TX27/2913Z TN15/3003Z BECMG 2918

May-29@
12:00 UTC

May-29 @ 12:00 UTC

May-30@
12:00 UTC

May-30 @ 12:00 UTC

TAF FQCH 291000Z 2912/3012 VRB03KT 9999 FEW020 TX27/2913Z TN15/3003Z
Wind
  • Variable at 3 KTS
Cloud Levels
  • Few at 2,000' AGL

May-29@
12:00 UTC

May-29 @ 12:00 UTC

May-30@
12:00 UTC

May-30 @ 12:00 UTC

Becoming

Becoming Conditions expected by Fri, May 29, 2020 @ 18:00 UTC

Wind
  • Variable at 3 KTS
Cloud Levels
  • Few at 2,000' AGL